createdAt,value
2018-08-30T00:00:33.600Z,16.73
2018-08-30T00:03:04.255Z,16.73
2018-08-30T00:05:34.846Z,16.67
2018-08-30T00:08:05.573Z,16.63
2018-08-30T00:10:36.244Z,16.62
2018-08-30T00:13:06.964Z,16.59
2018-08-30T00:15:37.562Z,16.45
2018-08-30T00:18:08.220Z,16.46
2018-08-30T00:20:38.880Z,16.35
2018-08-30T00:23:09.504Z,16.31
2018-08-30T00:25:40.154Z,16.31
2018-08-30T00:28:10.815Z,16.27
2018-08-30T00:30:55.709Z,16.21
2018-08-30T00:33:26.346Z,16.22
2018-08-30T00:35:56.981Z,16.14
2018-08-30T00:38:27.633Z,16.04
2018-08-30T00:40:58.243Z,15.99
2018-08-30T00:43:28.965Z,15.91
2018-08-30T00:45:59.599Z,15.90
2018-08-30T00:48:30.233Z,15.79
2018-08-30T00:51:00.903Z,15.84
2018-08-30T00:53:31.569Z,15.77
2018-08-30T00:56:02.206Z,15.72
2018-08-30T00:58:32.845Z,15.79
2018-08-30T01:01:03.591Z,15.84
2018-08-30T01:03:34.335Z,15.80
2018-08-30T01:06:05.013Z,15.78
2018-08-30T01:08:35.626Z,15.76
2018-08-30T01:11:06.744Z,15.77
2018-08-30T01:13:37.414Z,15.77
2018-08-30T01:16:08.089Z,15.79
2018-08-30T01:18:38.819Z,15.78
2018-08-30T01:21:09.442Z,15.81
2018-08-30T01:23:40.106Z,15.88
2018-08-30T01:26:10.802Z,15.90
2018-08-30T01:28:41.503Z,15.96
2018-08-30T01:31:12.131Z,15.98
2018-08-30T01:33:42.801Z,15.98
2018-08-30T01:36:13.434Z,15.99
2018-08-30T01:38:44.104Z,16.01
2018-08-30T01:41:14.770Z,16.00
2018-08-30T01:43:45.435Z,15.99
2018-08-30T01:46:16.061Z,15.98
2018-08-30T01:48:46.747Z,15.92
2018-08-30T01:51:17.394Z,15.93
2018-08-30T01:53:48.127Z,15.90
2018-08-30T01:56:18.868Z,15.89
2018-08-30T01:58:49.483Z,15.87
2018-08-30T02:01:20.143Z,15.91
2018-08-30T02:03:50.818Z,15.91
2018-08-30T02:06:21.508Z,15.96
2018-08-30T02:08:52.127Z,15.96
2018-08-30T02:11:22.786Z,15.91
2018-08-30T02:13:53.436Z,15.90
2018-08-30T02:16:24.078Z,15.91
2018-08-30T02:18:55.424Z,15.87
2018-08-30T02:21:26.079Z,15.89
2018-08-30T02:23:56.734Z,15.90
2018-08-30T02:26:27.392Z,15.87
2018-08-30T02:28:58.023Z,15.91
2018-08-30T02:31:28.705Z,15.97
2018-08-30T02:33:59.388Z,15.99
2018-08-30T02:36:29.975Z,16.07
2018-08-30T02:39:00.644Z,16.00
2018-08-30T02:41:31.301Z,15.99
2018-08-30T02:44:01.966Z,16.01
2018-08-30T02:46:32.602Z,15.97
2018-08-30T02:49:03.301Z,16.02
2018-08-30T02:51:33.868Z,16.05
2018-08-30T02:54:04.623Z,16.08
2018-08-30T02:56:35.295Z,16.11
2018-08-30T02:59:05.868Z,16.11
2018-08-30T03:01:36.571Z,16.11
2018-08-30T03:04:07.322Z,16.14
2018-08-30T03:06:38.004Z,16.07
2018-08-30T03:09:13.861Z,16.08
2018-08-30T03:11:49.854Z,16.12
2018-08-30T03:14:25.786Z,16.09
2018-08-30T03:17:01.715Z,16.08
2018-08-30T03:19:37.762Z,16.10
2018-08-30T03:22:13.723Z,16.09
2018-08-30T03:24:49.588Z,16.10
2018-08-30T03:27:25.488Z,16.13
2018-08-30T03:30:01.811Z,16.10
2018-08-30T03:32:37.738Z,16.14
2018-08-30T03:35:13.620Z,16.14
2018-08-30T03:37:49.320Z,16.27
2018-08-30T03:40:25.139Z,16.31
2018-08-30T03:43:01.092Z,16.36
2018-08-30T03:45:36.971Z,16.28
2018-08-30T03:48:12.752Z,16.25
2018-08-30T03:50:48.897Z,16.31
2018-08-30T03:53:24.835Z,16.36
2018-08-30T03:56:00.823Z,16.37
2018-08-30T03:58:36.592Z,16.35
2018-08-30T04:01:12.454Z,16.33
2018-08-30T04:03:48.332Z,16.38
2018-08-30T04:06:24.332Z,16.40
2018-08-30T04:09:00.155Z,16.37
2018-08-30T04:11:36.226Z,16.33
2018-08-30T04:14:12.147Z,16.26
2018-08-30T04:16:48.217Z,16.21
2018-08-30T04:19:24.084Z,16.24
2018-08-30T04:21:59.951Z,16.21
2018-08-30T04:24:35.948Z,16.18
2018-08-30T04:27:11.970Z,16.17
2018-08-30T04:29:47.746Z,16.22
2018-08-30T04:32:23.691Z,16.26
2018-08-30T04:34:59.681Z,16.28
2018-08-30T04:37:35.518Z,16.33
2018-08-30T04:40:11.529Z,16.35
2018-08-30T04:42:47.592Z,16.40
2018-08-30T04:45:23.440Z,16.35
2018-08-30T04:47:59.240Z,16.33
2018-08-30T04:50:35.387Z,16.26
2018-08-30T04:53:11.374Z,16.23
2018-08-30T04:55:47.255Z,16.18
2018-08-30T04:58:23.287Z,16.17
2018-08-30T05:00:59.491Z,16.17
2018-08-30T05:03:35.564Z,16.10
2018-08-30T05:06:11.443Z,16.08
2018-08-30T05:08:47.345Z,16.11
2018-08-30T05:11:23.297Z,16.15
2018-08-30T05:13:59.278Z,16.10
2018-08-30T05:16:35.332Z,16.12
2018-08-30T05:19:11.291Z,16.15
2018-08-30T05:21:47.277Z,16.16
2018-08-30T05:24:23.150Z,16.18
2018-08-30T05:26:59.241Z,16.22
2018-08-30T05:29:35.368Z,16.26
2018-08-30T05:32:11.437Z,16.29
2018-08-30T05:34:47.539Z,16.29
2018-08-30T05:37:23.550Z,16.37
2018-08-30T05:39:59.408Z,16.39
2018-08-30T05:42:35.415Z,16.39
2018-08-30T05:45:11.458Z,16.43
2018-08-30T05:47:47.461Z,16.46
2018-08-30T05:50:23.394Z,16.48
2018-08-30T05:52:59.267Z,16.52
2018-08-30T05:55:35.242Z,16.53
2018-08-30T05:58:11.018Z,16.57
2018-08-30T06:00:46.971Z,16.64
2018-08-30T06:03:23.002Z,16.59
2018-08-30T06:05:58.816Z,16.60
2018-08-30T06:08:34.861Z,16.66
2018-08-30T06:11:10.777Z,16.68
2018-08-30T06:13:46.768Z,16.71
2018-08-30T06:16:22.774Z,16.68
2018-08-30T06:18:59.209Z,16.67
2018-08-30T06:21:35.231Z,16.68
2018-08-30T06:24:11.403Z,16.72
2018-08-30T06:26:47.530Z,16.73
2018-08-30T06:29:23.550Z,16.79
2018-08-30T06:31:59.967Z,16.89
2018-08-30T06:34:35.816Z,16.93
2018-08-30T06:37:11.978Z,16.93
2018-08-30T06:39:47.888Z,16.91
2018-08-30T06:42:23.672Z,16.97
2018-08-30T06:44:59.635Z,17.04
2018-08-30T06:47:35.593Z,17.13
2018-08-30T06:50:11.574Z,17.12
2018-08-30T06:52:47.535Z,17.15
2018-08-30T06:55:23.400Z,17.31
2018-08-30T06:57:59.151Z,17.28
2018-08-30T07:00:35.040Z,17.36
2018-08-30T07:03:11.074Z,17.32
2018-08-30T07:05:46.941Z,17.33
2018-08-30T07:08:22.731Z,17.31
2018-08-30T07:10:58.712Z,17.28
2018-08-30T07:13:34.708Z,17.33
2018-08-30T07:16:10.772Z,17.33
2018-08-30T07:18:46.613Z,17.39
2018-08-30T07:21:22.622Z,17.43
2018-08-30T07:23:58.607Z,17.57
2018-08-30T07:26:34.432Z,17.66
2018-08-30T07:29:10.746Z,17.75
2018-08-30T07:31:46.777Z,17.73
2018-08-30T07:34:22.795Z,17.76
2018-08-30T07:36:58.655Z,17.75
2018-08-30T07:39:34.514Z,17.84
2018-08-30T07:42:10.340Z,18.07
2018-08-30T07:44:46.207Z,18.16
2018-08-30T07:47:22.159Z,18.38
2018-08-30T07:49:58.035Z,18.66
2018-08-30T07:52:33.848Z,18.74
2018-08-30T07:55:09.666Z,18.87
2018-08-30T07:57:45.633Z,18.94
2018-08-30T08:00:21.528Z,18.86
2018-08-30T08:02:57.455Z,18.80
2018-08-30T08:05:33.397Z,19.05
2018-08-30T08:08:09.267Z,19.47
2018-08-30T08:10:45.638Z,19.78
2018-08-30T08:13:21.581Z,19.83
2018-08-30T08:15:57.653Z,20.10
2018-08-30T08:18:33.547Z,20.41
2018-08-30T08:21:09.652Z,20.58
2018-08-30T08:23:45.571Z,20.91
2018-08-30T08:26:21.595Z,21.20
2018-08-30T08:28:57.619Z,21.27
2018-08-30T08:31:33.461Z,21.15
2018-08-30T08:34:09.512Z,21.06
2018-08-30T08:36:45.488Z,21.15
2018-08-30T08:39:21.469Z,21.39
2018-08-30T08:41:57.557Z,21.33
2018-08-30T08:44:33.597Z,21.32
2018-08-30T08:47:09.429Z,21.48
2018-08-30T08:49:45.289Z,21.73
2018-08-30T08:52:21.332Z,22.20
2018-08-30T08:54:57.095Z,22.51
2018-08-30T08:57:33.041Z,22.56
2018-08-30T09:00:08.914Z,22.52
2018-08-30T09:02:47.694Z,21.94
2018-08-30T09:05:23.793Z,21.85
2018-08-30T09:07:59.792Z,22.07
2018-08-30T09:10:35.706Z,22.07
2018-08-30T09:13:11.746Z,22.20
2018-08-30T09:15:47.772Z,22.37
2018-08-30T09:18:23.649Z,22.40
2018-08-30T09:20:59.902Z,22.11
2018-08-30T09:23:35.940Z,21.54
2018-08-30T09:26:11.848Z,21.43
2018-08-30T09:28:47.712Z,21.49
2018-08-30T09:31:23.796Z,21.46
2018-08-30T09:33:59.974Z,21.28
2018-08-30T09:36:36.040Z,21.57
2018-08-30T09:39:11.971Z,22.05
2018-08-30T09:41:47.878Z,22.36
2018-08-30T09:44:23.855Z,22.78
2018-08-30T09:46:59.784Z,22.99
2018-08-30T09:49:35.654Z,23.19
2018-08-30T09:52:11.594Z,23.29
2018-08-30T09:54:47.519Z,22.83
2018-08-30T09:57:23.566Z,22.46
2018-08-30T09:59:59.224Z,21.99
2018-08-30T10:02:47.010Z,21.86
2018-08-30T10:05:23.016Z,21.93
2018-08-30T10:07:59.237Z,22.60
2018-08-30T10:10:35.295Z,23.05
2018-08-30T10:13:11.254Z,23.02
2018-08-30T10:15:47.344Z,22.88
2018-08-30T10:18:23.539Z,22.37
2018-08-30T10:20:59.542Z,22.03
2018-08-30T10:23:35.518Z,21.78
2018-08-30T10:26:11.430Z,21.54
2018-08-30T10:28:47.347Z,21.35
2018-08-30T10:31:23.424Z,21.28
2018-08-30T10:33:59.461Z,21.43
2018-08-30T10:36:35.415Z,22.18
2018-08-30T10:39:11.339Z,22.90
2018-08-30T10:41:47.280Z,23.55
2018-08-30T10:44:23.159Z,24.12
2018-08-30T10:46:59.141Z,24.38
2018-08-30T10:49:35.239Z,24.21
2018-08-30T10:52:11.145Z,23.75
2018-08-30T10:54:47.097Z,23.33
2018-08-30T10:57:23.123Z,22.87
2018-08-30T10:59:59.060Z,22.46
2018-08-30T11:02:35.150Z,22.11
2018-08-30T11:05:11.072Z,21.76
2018-08-30T11:07:46.996Z,21.42
2018-08-30T11:10:22.901Z,21.11
2018-08-30T11:12:59.125Z,20.81
2018-08-30T11:15:35.098Z,20.68
2018-08-30T11:18:11.112Z,20.64
2018-08-30T11:20:46.967Z,20.64
2018-08-30T11:23:22.977Z,20.78
2018-08-30T11:25:58.972Z,20.86
2018-08-30T11:28:35.004Z,21.04
2018-08-30T11:31:10.799Z,21.54
2018-08-30T11:33:46.598Z,21.76
2018-08-30T11:36:22.385Z,21.71
2018-08-30T11:38:58.347Z,21.60
2018-08-30T11:41:34.379Z,21.39
2018-08-30T11:44:10.455Z,21.18
2018-08-30T11:46:46.410Z,20.89
2018-08-30T11:49:22.368Z,20.74
2018-08-30T11:51:58.288Z,20.52
2018-08-30T11:54:34.217Z,20.49
2018-08-30T11:57:10.199Z,20.53
2018-08-30T11:59:46.106Z,20.58
2018-08-30T12:02:21.988Z,20.50
2018-08-30T12:04:58.100Z,20.74
2018-08-30T12:07:34.058Z,21.02
2018-08-30T12:10:10.119Z,21.32
2018-08-30T12:12:46.110Z,21.48
2018-08-30T12:15:22.113Z,21.62
2018-08-30T12:17:58.046Z,21.78
2018-08-30T12:20:34.040Z,21.87
2018-08-30T12:23:10.038Z,22.03
2018-08-30T12:25:46.113Z,22.19
2018-08-30T12:28:22.149Z,22.19
2018-08-30T12:30:58.335Z,22.21
2018-08-30T12:33:34.301Z,22.27
2018-08-30T12:36:10.561Z,22.17
2018-08-30T12:38:46.714Z,22.03
2018-08-30T12:41:22.602Z,21.90
2018-08-30T12:43:58.723Z,22.00
2018-08-30T12:46:34.757Z,22.06
2018-08-30T12:49:10.658Z,22.08
2018-08-30T12:51:46.783Z,22.53
2018-08-30T12:54:22.724Z,23.11
2018-08-30T12:56:58.702Z,23.60
2018-08-30T12:59:39.607Z,23.72
2018-08-30T13:02:15.672Z,23.71
2018-08-30T13:04:51.706Z,23.81
2018-08-30T13:07:28.020Z,23.78
2018-08-30T13:10:04.268Z,23.75
2018-08-30T13:12:40.399Z,23.62
2018-08-30T13:15:16.391Z,23.74
2018-08-30T13:17:52.265Z,23.51
2018-08-30T13:20:28.551Z,23.28
2018-08-30T13:23:04.345Z,23.26
2018-08-30T13:25:40.367Z,23.57
2018-08-30T13:28:16.454Z,23.95
2018-08-30T13:30:52.603Z,24.22
2018-08-30T13:33:28.559Z,24.00
2018-08-30T13:36:04.864Z,23.73
2018-08-30T13:38:41.337Z,23.55
2018-08-30T13:41:17.286Z,23.58
2018-08-30T13:43:53.407Z,23.40
2018-08-30T13:46:29.453Z,23.26
2018-08-30T13:49:05.391Z,23.01
2018-08-30T13:51:41.398Z,22.75
2018-08-30T13:54:17.412Z,22.60
2018-08-30T13:56:53.421Z,22.32
2018-08-30T13:59:29.489Z,22.18
2018-08-30T14:02:05.493Z,21.97
2018-08-30T14:04:41.323Z,21.93
2018-08-30T14:07:17.336Z,21.82
2018-08-30T14:09:53.257Z,21.78
2018-08-30T14:12:29.271Z,21.81
2018-08-30T14:15:05.610Z,21.86
2018-08-30T14:17:41.008Z,21.89
2018-08-30T14:20:16.915Z,22.07
2018-08-30T14:22:52.966Z,22.10
2018-08-30T14:25:29.079Z,22.18
2018-08-30T14:28:05.031Z,22.06
2018-08-30T14:30:40.972Z,22.18
2018-08-30T14:33:17.125Z,22.19
2018-08-30T14:35:52.855Z,22.18
2018-08-30T14:38:28.695Z,22.19
2018-08-30T14:41:04.668Z,22.22
2018-08-30T14:43:40.451Z,22.16
2018-08-30T14:46:16.388Z,22.10
2018-08-30T14:48:52.343Z,22.14
2018-08-30T14:51:28.338Z,22.10
2018-08-30T14:54:04.571Z,22.04
2018-08-30T14:56:41.141Z,21.94
2018-08-30T14:59:17.187Z,21.90
2018-08-30T15:01:53.033Z,21.92
2018-08-30T15:04:29.102Z,21.95
2018-08-30T15:07:05.158Z,21.97
2018-08-30T15:09:41.148Z,22.02
2018-08-30T15:12:16.996Z,21.93
2018-08-30T15:14:53.057Z,22.05
2018-08-30T15:17:29.089Z,22.17
2018-08-30T15:20:05.147Z,22.21
2018-08-30T15:22:40.877Z,22.36
2018-08-30T15:25:16.812Z,22.51
2018-08-30T15:27:52.745Z,22.66
2018-08-30T15:30:28.746Z,22.73
2018-08-30T15:33:04.865Z,22.76
2018-08-30T15:35:40.876Z,22.70
2018-08-30T15:38:16.706Z,22.88
2018-08-30T15:40:52.751Z,22.65
2018-08-30T15:43:28.848Z,22.56
2018-08-30T15:46:04.772Z,22.58
2018-08-30T15:48:40.736Z,22.54
2018-08-30T15:51:16.796Z,22.50
2018-08-30T15:53:52.789Z,22.58
2018-08-30T15:56:28.797Z,22.57
2018-08-30T15:59:05.005Z,22.69
2018-08-30T16:01:40.821Z,22.72
2018-08-30T16:04:16.867Z,22.67
2018-08-30T16:06:52.874Z,22.74
2018-08-30T16:09:28.766Z,22.68
2018-08-30T16:12:04.853Z,22.46
2018-08-30T16:14:40.748Z,22.22
2018-08-30T16:17:16.898Z,22.05
2018-08-30T16:19:52.987Z,21.81
2018-08-30T16:23:43.325Z,21.66
2018-08-30T16:26:19.297Z,21.53
2018-08-30T16:28:55.364Z,21.48
2018-08-30T16:31:31.521Z,21.39
2018-08-30T16:34:08.392Z,21.28
2018-08-30T16:36:44.412Z,21.27
2018-08-30T16:39:20.677Z,21.16
2018-08-30T16:41:56.627Z,21.12
2018-08-30T16:44:32.724Z,21.02
2018-08-30T16:47:08.925Z,20.91
2018-08-30T16:49:44.945Z,20.88
2018-08-30T16:52:20.955Z,20.76
2018-08-30T16:54:56.953Z,20.65
2018-08-30T16:57:32.895Z,20.61
2018-08-30T17:00:09.076Z,20.49
2018-08-30T17:02:45.033Z,20.42
2018-08-30T17:05:21.015Z,20.28
2018-08-30T17:07:57.259Z,20.21
2018-08-30T17:10:33.399Z,20.12
2018-08-30T17:13:10.102Z,20.14
2018-08-30T17:15:46.287Z,20.09
2018-08-30T17:18:22.328Z,20.01
2018-08-30T17:20:58.849Z,19.90
2018-08-30T17:23:34.985Z,19.88
2018-08-30T17:26:11.218Z,19.76
2018-08-30T17:28:47.333Z,19.66
2018-08-30T17:31:23.381Z,19.60
2018-08-30T17:33:59.312Z,19.50
2018-08-30T17:36:35.301Z,19.48
2018-08-30T17:39:12.094Z,19.42
2018-08-30T17:41:47.797Z,19.35
2018-08-30T17:44:23.833Z,19.29
2018-08-30T17:46:59.855Z,19.22
2018-08-30T17:49:35.901Z,19.19
2018-08-30T17:52:12.110Z,19.15
2018-08-30T17:54:48.246Z,19.12
2018-08-30T17:57:24.121Z,19.12
2018-08-30T18:00:00.139Z,19.04
2018-08-30T18:02:36.248Z,18.97
2018-08-30T18:05:12.522Z,18.89
2018-08-30T18:07:48.472Z,18.86
2018-08-30T18:10:24.622Z,18.79
2018-08-30T18:13:00.679Z,18.74
2018-08-30T18:15:36.554Z,18.70
2018-08-30T18:18:12.728Z,18.66
2018-08-30T18:20:48.612Z,18.63
2018-08-30T18:23:24.859Z,18.60
2018-08-30T18:26:00.956Z,18.56
2018-08-30T18:28:37.155Z,18.53
2018-08-30T18:31:13.154Z,18.50
2018-08-30T18:33:49.281Z,18.47
2018-08-30T18:36:25.448Z,18.43
2018-08-30T18:39:01.611Z,18.39
2018-08-30T18:41:37.992Z,18.36
2018-08-30T18:44:14.277Z,18.33
2018-08-30T18:46:50.361Z,18.33
2018-08-30T18:49:26.377Z,18.28
2018-08-30T18:52:02.364Z,18.26
2018-08-30T18:54:38.764Z,18.26
2018-08-30T18:57:14.953Z,18.25
2018-08-30T18:59:51.071Z,18.23
2018-08-30T19:02:26.963Z,18.21
2018-08-30T19:05:03.432Z,18.18
2018-08-30T19:07:39.402Z,18.17
2018-08-30T19:10:15.470Z,18.14
2018-08-30T19:12:51.541Z,18.10
2018-08-30T19:15:33.011Z,18.08
2018-08-30T19:18:14.157Z,18.05
2018-08-30T19:20:50.041Z,18.01
2018-08-30T19:23:25.935Z,17.99
2018-08-30T19:26:01.896Z,17.98
2018-08-30T19:28:37.992Z,17.97
2018-08-30T19:31:13.922Z,17.92
2018-08-30T19:33:49.900Z,17.90
2018-08-30T19:36:29.936Z,17.88
2018-08-30T19:39:10.374Z,17.87
2018-08-30T19:41:46.731Z,17.82
2018-08-30T19:44:22.753Z,17.78
2018-08-30T19:46:58.948Z,17.77
2018-08-30T19:49:35.012Z,17.74
2018-08-30T19:52:11.036Z,17.73
2018-08-30T19:54:48.218Z,17.71
2018-08-30T19:57:24.392Z,17.70
2018-08-30T20:00:00.459Z,17.69
2018-08-30T20:02:36.509Z,17.70
2018-08-30T20:05:12.725Z,17.70
2018-08-30T20:07:48.837Z,17.68
2018-08-30T20:10:25.045Z,17.68
2018-08-30T20:13:01.026Z,17.72
2018-08-30T20:15:36.934Z,17.75
2018-08-30T20:18:12.972Z,17.80
2018-08-30T20:20:49.089Z,17.82
2018-08-30T20:23:25.001Z,17.79
2018-08-30T20:26:00.905Z,17.77
2018-08-30T20:28:37.054Z,17.76
2018-08-30T20:31:13.116Z,17.74
2018-08-30T20:33:49.156Z,17.71
2018-08-30T20:36:25.082Z,17.68
2018-08-30T20:39:01.080Z,17.66
2018-08-30T20:41:37.089Z,17.63
2018-08-30T20:44:13.217Z,17.62
2018-08-30T20:46:49.246Z,17.63
2018-08-30T20:49:25.170Z,17.58
2018-08-30T20:52:01.269Z,17.56
2018-08-30T20:54:37.232Z,17.57
2018-08-30T20:57:13.271Z,17.58
2018-08-30T20:59:49.417Z,17.58
2018-08-30T21:02:25.843Z,17.51
2018-08-30T21:05:01.862Z,17.38
2018-08-30T21:07:37.954Z,17.32
2018-08-30T21:10:14.118Z,17.28
2018-08-30T21:12:50.045Z,17.26
2018-08-30T21:15:26.314Z,17.25
2018-08-30T21:18:02.354Z,17.19
2018-08-30T21:20:38.431Z,17.09
2018-08-30T21:23:14.496Z,17.02
2018-08-30T21:25:50.480Z,16.95
2018-08-30T21:28:26.583Z,16.90
2018-08-30T21:31:02.573Z,16.90
2018-08-30T21:33:38.498Z,16.80
2018-08-30T21:36:14.548Z,16.75
2018-08-30T21:38:50.603Z,16.68
2018-08-30T21:41:26.651Z,16.62
2018-08-30T21:44:02.688Z,16.56
2018-08-30T21:46:38.855Z,16.50
2018-08-30T21:49:14.908Z,16.45
2018-08-30T21:51:51.045Z,16.40
2018-08-30T21:54:26.915Z,16.35
2018-08-30T21:57:02.940Z,16.34
2018-08-30T21:59:38.963Z,16.28
2018-08-30T22:02:14.988Z,16.28
2018-08-30T22:04:51.136Z,16.24
2018-08-30T22:07:27.123Z,16.22
2018-08-30T22:10:03.134Z,16.24
2018-08-30T22:12:38.991Z,16.21
2018-08-30T22:15:14.872Z,16.15
2018-08-30T22:17:50.806Z,16.09
2018-08-30T22:20:26.699Z,16.07
2018-08-30T22:23:02.766Z,16.02
2018-08-30T22:25:38.695Z,15.98
2018-08-30T22:28:14.749Z,15.96
2018-08-30T22:30:50.688Z,15.93
2018-08-30T22:33:26.733Z,15.89
2018-08-30T22:36:02.599Z,15.83
2018-08-30T22:38:38.635Z,15.84
2018-08-30T22:41:14.599Z,15.81
2018-08-30T22:43:50.591Z,15.78
2018-08-30T22:46:26.622Z,15.74
2018-08-30T22:49:02.385Z,15.68
2018-08-30T22:51:38.403Z,15.66
2018-08-30T22:54:14.359Z,15.63
2018-08-30T22:56:50.185Z,15.62
2018-08-30T22:59:26.105Z,15.62
2018-08-30T23:02:02.153Z,15.60
2018-08-30T23:04:38.192Z,15.58
2018-08-30T23:07:14.196Z,15.57
2018-08-30T23:09:50.084Z,15.54
2018-08-30T23:12:25.969Z,15.51
2018-08-30T23:15:02.079Z,15.52
2018-08-30T23:17:37.865Z,15.55
2018-08-30T23:20:13.755Z,15.53
2018-08-30T23:22:49.592Z,15.53
2018-08-30T23:25:25.587Z,15.55
2018-08-30T23:28:01.449Z,15.57
2018-08-30T23:30:37.413Z,15.60
2018-08-30T23:33:13.329Z,15.64
2018-08-30T23:35:49.138Z,15.63
2018-08-30T23:38:25.096Z,15.63
2018-08-30T23:41:00.957Z,15.66
2018-08-30T23:43:37.036Z,15.63
2018-08-30T23:46:13.060Z,15.66
2018-08-30T23:48:48.874Z,15.64
2018-08-30T23:51:24.859Z,15.66
2018-08-30T23:54:00.788Z,15.66
2018-08-30T23:56:36.769Z,15.65
2018-08-30T23:59:29.545Z,15.58
